createdAt,value
2019-04-01T00:00:15.925Z,43.97
2019-04-01T00:02:45.057Z,49.47
2019-04-01T00:05:14.390Z,47.87
2019-04-01T00:07:43.629Z,49.10
2019-04-01T00:10:12.862Z,46.87
2019-04-01T00:12:42.131Z,47.90
2019-04-01T00:15:11.285Z,43.93
2019-04-01T00:17:40.525Z,42.43
2019-04-01T00:20:09.876Z,47.20
2019-04-01T00:22:39.161Z,47.50
2019-04-01T00:25:08.469Z,45.40
2019-04-01T00:27:37.613Z,43.50
2019-04-01T00:30:06.980Z,47.33
2019-04-01T00:32:36.154Z,44.20
2019-04-01T00:35:05.456Z,45.37
2019-04-01T00:37:34.642Z,50.53
2019-04-01T00:40:03.800Z,46.47
2019-04-01T00:42:41.153Z,44.50
2019-04-01T00:45:13.602Z,44.83
2019-04-01T00:47:42.863Z,46.97
2019-04-01T00:50:12.219Z,46.20
2019-04-01T00:52:41.351Z,44.97
2019-04-01T00:55:10.479Z,43.40
2019-04-01T00:57:39.901Z,50.13
2019-04-01T01:00:10.687Z,46.20
2019-04-01T01:02:39.921Z,49.23
2019-04-01T01:05:09.071Z,44.03
2019-04-01T01:07:38.242Z,45.17
2019-04-01T01:10:08.105Z,45.27
2019-04-01T01:12:37.292Z,47.57
2019-04-01T01:15:08.107Z,44.20
2019-04-01T01:17:37.409Z,44.10
2019-04-01T01:20:06.931Z,45.73
2019-04-01T01:22:36.299Z,50.03
2019-04-01T01:25:05.530Z,49.03
2019-04-01T01:27:34.730Z,44.03
2019-04-01T01:30:04.639Z,48.87
2019-04-01T01:32:33.943Z,42.47
2019-04-01T01:35:03.175Z,44.40
2019-04-01T01:37:32.476Z,47.83
2019-04-01T01:40:01.619Z,49.07
2019-04-01T01:42:30.820Z,45.93
2019-04-01T01:45:00.025Z,45.00
2019-04-01T01:47:29.205Z,42.10
2019-04-01T01:49:58.421Z,41.23
2019-04-01T01:52:27.620Z,48.40
2019-04-01T01:54:56.793Z,48.10
2019-04-01T01:57:26.250Z,46.53
2019-04-01T01:59:55.728Z,42.10
2019-04-01T02:02:24.891Z,46.90
2019-04-01T02:04:54.139Z,44.00
2019-04-01T02:07:23.311Z,45.33
2019-04-01T02:09:52.441Z,44.97
2019-04-01T02:12:21.685Z,45.77
2019-04-01T02:14:50.836Z,39.13
2019-04-01T02:17:19.964Z,44.20
2019-04-01T02:19:49.151Z,40.97
2019-04-01T02:22:18.289Z,45.10
2019-04-01T02:24:47.412Z,36.40
2019-04-01T02:27:16.655Z,39.03
2019-04-01T02:29:46.361Z,38.53
2019-04-01T02:32:15.624Z,40.17
2019-04-01T02:34:44.763Z,39.37
2019-04-01T02:37:13.911Z,45.63
2019-04-01T02:39:43.343Z,42.40
2019-04-01T02:42:12.501Z,36.77
2019-04-01T02:44:41.641Z,41.77
2019-04-01T02:47:11.116Z,40.07
2019-04-01T02:49:40.290Z,38.53
2019-04-01T02:52:09.407Z,40.47
2019-04-01T02:54:38.561Z,41.47
2019-04-01T02:57:07.678Z,39.83
2019-04-01T02:59:36.938Z,37.37
2019-04-01T03:02:06.763Z,38.77
2019-04-01T03:04:35.982Z,35.47
2019-04-01T03:07:05.133Z,41.40
2019-04-01T03:09:34.324Z,39.93
2019-04-01T03:12:03.582Z,36.07
2019-04-01T03:14:32.690Z,40.97
2019-04-01T03:17:01.845Z,38.77
2019-04-01T03:19:31.163Z,41.57
2019-04-01T03:22:00.287Z,37.17
2019-04-01T03:24:29.434Z,35.10
2019-04-01T03:26:58.618Z,38.63
2019-04-01T03:29:27.778Z,39.33
2019-04-01T03:31:57.016Z,40.40
2019-04-01T03:34:26.136Z,36.13
2019-04-01T03:36:55.272Z,39.77
2019-04-01T03:39:24.404Z,35.07
2019-04-01T03:41:53.514Z,36.93
2019-04-01T03:44:23.237Z,37.30
2019-04-01T03:46:52.408Z,37.80
2019-04-01T03:49:21.581Z,34.03
2019-04-01T03:51:50.848Z,34.93
2019-04-01T03:54:20.053Z,35.23
2019-04-01T03:56:49.503Z,37.97
2019-04-01T03:59:18.663Z,38.70
2019-04-01T04:01:47.833Z,41.13
2019-04-01T04:04:17.049Z,35.97
2019-04-01T04:06:46.203Z,35.27
2019-04-01T04:09:15.462Z,35.47
2019-04-01T04:11:44.638Z,34.53
2019-04-01T04:14:13.779Z,38.47
2019-04-01T04:16:43.002Z,32.07
2019-04-01T04:19:12.119Z,39.87
2019-04-01T04:21:41.270Z,37.73
2019-04-01T04:24:10.819Z,41.40
2019-04-01T04:26:40.181Z,33.07
2019-04-01T04:29:09.313Z,33.20
2019-04-01T04:31:38.458Z,33.70
2019-04-01T04:34:07.672Z,37.87
2019-04-01T04:36:36.832Z,35.63
2019-04-01T04:39:07.102Z,37.00
2019-04-01T04:41:36.498Z,39.80
2019-04-01T04:44:05.906Z,35.33
2019-04-01T04:46:35.045Z,39.37
2019-04-01T04:49:04.180Z,37.33
2019-04-01T04:51:33.337Z,34.40
2019-04-01T04:54:02.457Z,34.83
2019-04-01T04:56:31.829Z,38.03
2019-04-01T04:59:00.935Z,33.67
2019-04-01T05:01:30.102Z,39.47
2019-04-01T05:03:59.720Z,35.40
2019-04-01T05:06:29.042Z,33.43
2019-04-01T05:08:58.185Z,35.80
2019-04-01T05:11:27.381Z,32.47
2019-04-01T05:13:58.540Z,38.00
2019-04-01T05:16:27.721Z,34.43
2019-04-01T05:18:56.889Z,37.43
2019-04-01T05:21:26.306Z,35.10
2019-04-01T05:23:55.926Z,35.97
2019-04-01T05:26:26.822Z,36.37
2019-04-01T05:28:57.475Z,38.80
2019-04-01T05:31:29.248Z,36.07
2019-04-01T05:34:01.835Z,34.37
2019-04-01T05:36:31.574Z,31.27
2019-04-01T05:39:00.906Z,36.47
2019-04-01T05:41:30.147Z,30.03
2019-04-01T05:44:02.142Z,31.10
2019-04-01T05:46:30.349Z,34.47
2019-04-01T05:48:59.579Z,36.57
2019-04-01T05:51:29.553Z,35.97
2019-04-01T05:53:59.329Z,32.40
2019-04-01T05:56:28.905Z,33.30
2019-04-01T05:58:59.477Z,30.27
2019-04-01T06:01:34.208Z,42.63
2019-04-01T06:04:03.538Z,36.33
2019-04-01T06:06:32.689Z,34.93
2019-04-01T06:09:02.399Z,33.43
2019-04-01T06:11:31.940Z,36.73
2019-04-01T06:14:01.544Z,35.17
2019-04-01T06:16:31.011Z,30.83
2019-04-01T06:19:00.597Z,30.00
2019-04-01T06:21:30.089Z,36.23
2019-04-01T06:23:59.846Z,35.90
2019-04-01T06:26:29.211Z,27.33
2019-04-01T06:28:58.385Z,35.13
2019-04-01T06:31:27.562Z,31.57
2019-04-01T06:33:57.052Z,30.67
2019-04-01T06:36:26.449Z,28.07
2019-04-01T06:38:55.764Z,29.20
2019-04-01T06:41:24.936Z,27.13
2019-04-01T06:43:54.267Z,29.03
2019-04-01T06:46:23.564Z,26.97
2019-04-01T06:48:53.203Z,29.07
2019-04-01T06:51:22.606Z,30.03
2019-04-01T06:53:52.164Z,28.60
2019-04-01T06:56:21.315Z,26.93
2019-04-01T06:58:50.576Z,23.13
2019-04-01T07:01:20.131Z,24.83
2019-04-01T07:03:49.371Z,26.23
2019-04-01T07:06:18.656Z,27.90
2019-04-01T07:08:47.840Z,30.17
2019-04-01T07:11:17.490Z,24.67
2019-04-01T07:13:46.632Z,29.67
2019-04-01T07:16:16.566Z,26.70
2019-04-01T07:18:45.723Z,25.60
2019-04-01T07:21:15.132Z,26.63
2019-04-01T07:23:44.624Z,26.23
2019-04-01T07:26:13.902Z,26.17
2019-04-01T07:28:43.065Z,27.07
2019-04-01T07:31:12.512Z,27.70
2019-04-01T07:33:41.675Z,27.93
2019-04-01T07:36:10.877Z,26.90
2019-04-01T07:38:40.073Z,28.13
2019-04-01T07:41:09.580Z,33.60
2019-04-01T07:43:39.224Z,23.53
2019-04-01T07:46:08.529Z,27.00
2019-04-01T07:48:37.771Z,25.47
2019-04-01T07:51:07.457Z,24.43
2019-04-01T07:53:36.641Z,28.33
2019-04-01T07:56:06.458Z,25.27
2019-04-01T07:58:35.655Z,23.70
2019-04-01T08:01:05.151Z,25.10
2019-04-01T08:03:34.341Z,27.73
2019-04-01T08:06:03.984Z,21.77
2019-04-01T08:08:33.183Z,30.23
2019-04-01T08:11:02.332Z,24.67
2019-04-01T08:13:31.897Z,25.50
2019-04-01T08:16:01.333Z,25.87
2019-04-01T08:18:33.813Z,29.17
2019-04-01T08:21:01.447Z,21.40
2019-04-01T08:23:30.911Z,24.17
2019-04-01T08:26:00.050Z,26.83
2019-04-01T08:28:29.232Z,29.03
2019-04-01T08:30:58.501Z,28.73
2019-04-01T08:33:27.653Z,25.07
2019-04-01T08:35:56.842Z,24.50
2019-04-01T08:38:26.317Z,25.63
2019-04-01T08:40:55.484Z,26.83
2019-04-01T08:43:24.629Z,25.50
2019-04-01T08:45:53.938Z,24.10
2019-04-01T08:48:23.356Z,26.03
2019-04-01T08:50:52.627Z,22.57
2019-04-01T08:53:21.834Z,25.00
2019-04-01T08:56:00.257Z,23.47
2019-04-01T08:58:22.545Z,24.93
2019-04-01T09:00:52.041Z,22.97
2019-04-01T09:03:21.217Z,26.27
2019-04-01T09:05:50.455Z,24.97
2019-04-01T09:08:20.012Z,24.53
2019-04-01T09:10:49.453Z,24.83
2019-04-01T09:13:18.884Z,22.77
2019-04-01T09:15:48.054Z,24.40
2019-04-01T09:18:17.368Z,22.57
2019-04-01T09:20:46.555Z,27.63
2019-04-01T09:23:16.266Z,24.97
2019-04-01T09:25:45.551Z,24.53
2019-04-01T09:28:15.005Z,25.83
2019-04-01T09:30:44.206Z,32.03
2019-04-01T09:33:13.365Z,49.00
2019-04-01T09:35:43.097Z,26.33
2019-04-01T09:38:12.367Z,24.77
2019-04-01T09:40:41.982Z,22.03
2019-04-01T09:43:14.125Z,27.27
2019-04-01T09:45:42.369Z,24.47
2019-04-01T09:48:11.566Z,24.50
2019-04-01T09:50:40.790Z,24.07
2019-04-01T09:53:09.917Z,21.73
2019-04-01T09:55:39.068Z,29.43
2019-04-01T09:58:08.205Z,22.03
2019-04-01T10:00:37.398Z,25.40
2019-04-01T10:03:06.570Z,24.40
2019-04-01T10:05:35.759Z,24.87
2019-04-01T10:08:04.976Z,28.93
2019-04-01T10:10:34.388Z,25.77
2019-04-01T10:13:03.621Z,24.13
2019-04-01T10:15:32.826Z,27.93
2019-04-01T10:18:02.001Z,24.93
2019-04-01T10:20:31.648Z,24.43
2019-04-01T10:23:01.039Z,24.73
2019-04-01T10:25:30.223Z,27.87
2019-04-01T10:27:59.432Z,25.73
2019-04-01T10:30:29.112Z,21.57
2019-04-01T10:33:01.990Z,25.53
2019-04-01T10:35:29.304Z,22.43
2019-04-01T10:37:58.457Z,22.83
2019-04-01T10:40:27.933Z,23.67
2019-04-01T10:42:57.169Z,26.47
2019-04-01T10:45:26.352Z,23.53
2019-04-01T10:47:55.691Z,25.87
2019-04-01T10:50:25.087Z,26.27
2019-04-01T10:52:54.354Z,24.47
2019-04-01T10:55:23.564Z,28.20
2019-04-01T10:57:54.127Z,24.90
2019-04-01T11:00:23.919Z,25.37
2019-04-01T11:02:53.454Z,23.43
2019-04-01T11:05:22.771Z,23.30
2019-04-01T11:07:52.162Z,22.93
2019-04-01T11:10:21.574Z,25.08
2019-04-01T11:12:50.933Z,23.83
2019-04-01T11:15:20.508Z,25.68
2019-04-01T11:17:52.304Z,22.37
2019-04-01T11:20:20.637Z,21.77
2019-04-01T11:22:50.040Z,23.87
2019-04-01T11:25:19.201Z,23.00
2019-04-01T11:27:48.401Z,24.12
2019-04-01T11:30:17.570Z,21.20
2019-04-01T11:32:46.830Z,19.98
2019-04-01T11:35:16.433Z,22.37
2019-04-01T11:37:45.631Z,22.80
2019-04-01T11:40:15.791Z,21.33
2019-04-01T11:42:45.086Z,24.57
2019-04-01T11:45:14.809Z,20.73
2019-04-01T11:47:44.004Z,22.75
2019-04-01T11:50:13.320Z,21.93
2019-04-01T11:52:42.636Z,26.93
2019-04-01T11:55:11.905Z,25.03
2019-04-01T11:57:41.142Z,21.60
2019-04-01T12:00:14.161Z,21.42
2019-04-01T12:02:43.372Z,21.02
2019-04-01T12:05:12.604Z,21.87
2019-04-01T12:07:42.220Z,24.03
2019-04-01T12:10:11.683Z,23.43
2019-04-01T12:12:40.977Z,21.97
2019-04-01T12:15:12.533Z,24.00
2019-04-01T12:17:42.238Z,24.98
2019-04-01T12:20:11.900Z,20.90
2019-04-01T12:22:45.210Z,23.10
2019-04-01T12:25:12.069Z,25.30
2019-04-01T12:27:41.309Z,24.43
2019-04-01T12:30:11.323Z,21.12
2019-04-01T12:32:40.600Z,19.30
2019-04-01T12:35:09.792Z,19.73
2019-04-01T12:37:39.049Z,22.02
2019-04-01T12:40:08.721Z,20.23
2019-04-01T12:42:37.920Z,21.60
2019-04-01T12:45:08.170Z,20.55
2019-04-01T12:47:37.551Z,22.60
2019-04-01T12:50:07.068Z,23.85
2019-04-01T12:52:36.272Z,20.52
2019-04-01T12:55:05.830Z,21.52
2019-04-01T12:57:34.994Z,23.02
2019-04-01T13:00:06.608Z,20.20
2019-04-01T13:02:35.914Z,20.40
2019-04-01T13:05:05.513Z,22.07
2019-04-01T13:07:34.803Z,20.63
2019-04-01T13:10:04.670Z,21.23
2019-04-01T13:12:33.931Z,22.60
2019-04-01T13:15:03.125Z,20.23
2019-04-01T13:17:32.357Z,19.15
2019-04-01T13:20:01.607Z,19.35
2019-04-01T13:22:30.962Z,20.02
2019-04-01T13:25:01.021Z,21.77
2019-04-01T13:27:31.342Z,21.62
2019-04-01T13:30:00.556Z,23.30
2019-04-01T13:32:29.800Z,20.80
2019-04-01T13:34:59.036Z,21.20
2019-04-01T13:37:28.301Z,22.35
2019-04-01T13:39:57.560Z,21.62
2019-04-01T13:42:26.821Z,20.92
2019-04-01T13:44:56.171Z,20.75
2019-04-01T13:47:25.377Z,21.05
2019-04-01T13:49:54.568Z,22.52
2019-04-01T13:52:23.814Z,21.48
2019-04-01T13:54:53.153Z,22.65
2019-04-01T13:57:22.435Z,22.30
2019-04-01T13:59:51.918Z,22.10
2019-04-01T14:02:21.397Z,21.60
2019-04-01T14:04:50.562Z,21.33
2019-04-01T14:07:21.282Z,22.75
2019-04-01T14:09:51.288Z,22.17
2019-04-01T14:12:21.626Z,21.87
2019-04-01T14:14:50.862Z,23.25
2019-04-01T14:17:20.111Z,22.22
2019-04-01T14:19:49.403Z,20.45
2019-04-01T14:22:20.155Z,23.30
2019-04-01T14:24:50.041Z,20.15
2019-04-01T14:27:19.275Z,23.15
2019-04-01T14:29:48.620Z,21.50
2019-04-01T14:32:18.334Z,23.32
2019-04-01T14:34:50.337Z,26.52
2019-04-01T14:37:25.076Z,24.60
2019-04-01T14:39:50.057Z,20.68
2019-04-01T14:42:19.323Z,23.00
2019-04-01T14:44:59.177Z,21.77
2019-04-01T14:47:28.358Z,22.10
2019-04-01T14:49:57.636Z,22.70
2019-04-01T14:52:32.719Z,21.25
2019-04-01T14:54:57.765Z,20.30
2019-04-01T14:57:26.952Z,21.12
2019-04-01T14:59:56.494Z,22.53
2019-04-01T15:02:25.809Z,19.07
2019-04-01T15:04:55.187Z,19.53
2019-04-01T15:07:24.647Z,20.03
2019-04-01T15:09:53.950Z,21.13
2019-04-01T15:12:23.727Z,22.13
2019-04-01T15:14:52.950Z,19.60
2019-04-01T15:17:22.193Z,18.33
2019-04-01T15:19:51.419Z,21.90
2019-04-01T15:22:20.802Z,23.60
2019-04-01T15:24:50.028Z,20.70
2019-04-01T15:27:22.380Z,19.63
2019-04-01T15:29:50.265Z,23.20
2019-04-01T15:32:19.546Z,19.33
2019-04-01T15:34:48.757Z,17.37
2019-04-01T15:37:18.057Z,20.23
2019-04-01T15:39:48.651Z,20.33
2019-04-01T15:42:18.284Z,23.30
2019-04-01T15:44:47.517Z,19.17
2019-04-01T15:47:16.832Z,17.27
2019-04-01T15:49:46.103Z,19.73
2019-04-01T15:52:15.321Z,18.50
2019-04-01T15:54:44.502Z,19.63
2019-04-01T15:57:15.335Z,18.63
2019-04-01T15:59:44.808Z,17.47
2019-04-01T16:02:14.050Z,20.67
2019-04-01T16:04:43.286Z,19.17
2019-04-01T16:07:12.529Z,17.23
2019-04-01T16:09:41.785Z,16.87
2019-04-01T16:12:11.141Z,20.03
2019-04-01T16:14:40.545Z,16.50
2019-04-01T16:17:09.752Z,16.00
2019-04-01T16:19:39.055Z,18.10
2019-04-01T16:22:08.286Z,17.17
2019-04-01T16:24:37.507Z,18.53
2019-04-01T16:27:06.869Z,18.23
2019-04-01T16:29:36.150Z,16.43
2019-04-01T16:32:05.408Z,19.00
2019-04-01T16:34:35.168Z,19.47
2019-04-01T16:37:04.561Z,17.87
2019-04-01T16:39:33.972Z,15.77
2019-04-01T16:42:03.291Z,15.20
2019-04-01T16:44:32.480Z,17.80
2019-04-01T16:47:01.720Z,18.13
2019-04-01T16:49:30.993Z,15.73
2019-04-01T16:52:00.357Z,16.57
2019-04-01T16:54:30.644Z,15.83
2019-04-01T16:56:59.866Z,17.47
2019-04-01T16:59:29.193Z,15.27
2019-04-01T17:01:58.368Z,15.57
2019-04-01T17:04:27.623Z,14.13
2019-04-01T17:06:56.821Z,14.43
2019-04-01T17:09:26.301Z,14.53
2019-04-01T17:11:55.481Z,18.30
2019-04-01T17:14:24.910Z,15.67
2019-04-01T17:16:54.120Z,16.57
2019-04-01T17:19:23.378Z,17.53
2019-04-01T17:21:52.604Z,13.23
2019-04-01T17:24:21.991Z,15.40
2019-04-01T17:27:05.907Z,15.90
2019-04-01T17:29:35.186Z,14.77
2019-04-01T17:32:04.454Z,15.83
2019-04-01T17:34:33.572Z,15.03
2019-04-01T17:37:02.805Z,16.00
2019-04-01T17:39:32.068Z,18.07
2019-04-01T17:42:01.379Z,16.80
2019-04-01T17:44:30.653Z,15.33
2019-04-01T17:46:59.862Z,14.70
2019-04-01T17:49:29.110Z,14.07
2019-04-01T17:51:58.440Z,16.27
2019-04-01T17:54:27.659Z,15.83
2019-04-01T17:56:57.045Z,14.87
2019-04-01T17:59:26.269Z,13.43
2019-04-01T18:01:57.113Z,16.63
2019-04-01T18:04:26.500Z,14.93
2019-04-01T18:06:58.181Z,14.43
2019-04-01T18:09:26.790Z,16.53
2019-04-01T18:11:56.079Z,14.97
2019-04-01T18:14:25.386Z,14.03
2019-04-01T18:16:54.650Z,13.20
2019-04-01T18:19:23.908Z,19.47
2019-04-01T18:21:53.128Z,16.53
2019-04-01T18:24:23.143Z,16.13
2019-04-01T18:26:52.996Z,18.57
2019-04-01T18:29:22.246Z,17.57
2019-04-01T18:31:51.645Z,15.53
2019-04-01T18:34:20.863Z,14.63
2019-04-01T18:36:51.125Z,17.30
2019-04-01T18:39:21.164Z,14.53
2019-04-01T18:41:50.473Z,15.93
2019-04-01T18:44:19.708Z,17.93
2019-04-01T18:46:48.917Z,15.67
2019-04-01T18:49:18.287Z,16.40
2019-04-01T18:51:47.592Z,17.07
2019-04-01T18:54:16.911Z,14.67
2019-04-01T18:56:47.675Z,18.13
2019-04-01T18:59:17.217Z,16.40
2019-04-01T19:01:46.499Z,18.57
2019-04-01T19:04:15.726Z,18.47
2019-04-01T19:06:45.029Z,19.47
2019-04-01T19:09:14.258Z,18.70
2019-04-01T19:11:43.781Z,14.40
2019-04-01T19:14:13.050Z,16.97
2019-04-01T19:16:42.256Z,18.20
2019-04-01T19:19:11.719Z,16.53
2019-04-01T19:21:41.088Z,15.20
2019-04-01T19:24:10.339Z,17.73
2019-04-01T19:26:39.528Z,16.87
2019-04-01T19:29:08.727Z,16.67
2019-04-01T19:31:38.099Z,16.40
2019-04-01T19:34:07.796Z,16.67
2019-04-01T19:36:37.050Z,14.70
2019-04-01T19:39:07.805Z,18.50
2019-04-01T19:41:37.178Z,18.53
2019-04-01T19:44:06.524Z,16.87
2019-04-01T19:46:35.694Z,16.10
2019-04-01T19:49:05.301Z,19.10
2019-04-01T19:51:36.173Z,18.93
2019-04-01T19:54:05.451Z,19.37
2019-04-01T19:56:34.677Z,19.10
2019-04-01T19:59:03.910Z,18.00
2019-04-01T20:01:33.246Z,17.17
2019-04-01T20:04:02.460Z,16.47
2019-04-01T20:06:32.557Z,18.07
2019-04-01T20:09:01.697Z,17.07
2019-04-01T20:11:31.090Z,19.43
2019-04-01T20:14:00.767Z,18.23
2019-04-01T20:16:30.043Z,19.33
2019-04-01T20:19:00.732Z,17.63
2019-04-01T20:21:30.030Z,17.93
2019-04-01T20:23:59.413Z,17.60
2019-04-01T20:26:28.631Z,17.97
2019-04-01T20:28:57.879Z,17.57
2019-04-01T20:31:27.360Z,17.57
2019-04-01T20:33:56.741Z,17.03
2019-04-01T20:36:28.713Z,19.80
2019-04-01T20:38:56.972Z,16.67
2019-04-01T20:41:26.217Z,21.73
2019-04-01T20:43:55.413Z,18.57
2019-04-01T20:46:24.589Z,19.63
2019-04-01T20:48:54.069Z,22.37
2019-04-01T20:51:23.468Z,20.80
2019-04-01T20:53:52.676Z,21.97
2019-04-01T20:56:22.030Z,19.67
2019-04-01T20:58:51.284Z,19.00
2019-04-01T21:01:20.632Z,21.20
2019-04-01T21:03:49.861Z,21.93
2019-04-01T21:06:19.028Z,23.07
2019-04-01T21:08:48.483Z,18.50
2019-04-01T21:11:17.663Z,21.03
2019-04-01T21:13:46.855Z,19.43
2019-04-01T21:16:16.059Z,23.00
2019-04-01T21:18:45.539Z,21.17
2019-04-01T21:21:16.962Z,18.70
2019-04-01T21:23:45.765Z,24.00
2019-04-01T21:26:14.951Z,18.13
2019-04-01T21:28:44.198Z,24.60
2019-04-01T21:31:13.430Z,36.43
2019-04-01T21:33:42.594Z,20.63
2019-04-01T21:36:11.802Z,19.87
2019-04-01T21:38:41.034Z,22.67
2019-04-01T21:41:10.519Z,19.80
2019-04-01T21:43:39.720Z,21.90
2019-04-01T21:46:08.951Z,21.93
2019-04-01T21:48:39.199Z,21.57
2019-04-01T21:51:08.538Z,20.07
2019-04-01T21:53:37.756Z,20.40
2019-04-01T21:56:06.939Z,22.93
2019-04-01T21:58:36.064Z,22.77
2019-04-01T22:01:05.300Z,23.30
2019-04-01T22:03:34.526Z,20.70
2019-04-01T22:06:03.732Z,22.50
2019-04-01T22:08:32.878Z,24.83
2019-04-01T22:11:02.149Z,22.17
2019-04-01T22:13:32.362Z,25.07
2019-04-01T22:16:01.566Z,22.57
2019-04-01T22:18:32.937Z,22.53
2019-04-01T22:21:01.760Z,24.53
2019-04-01T22:23:30.949Z,27.63
2019-04-01T22:26:00.275Z,26.33
2019-04-01T22:28:29.436Z,27.83
2019-04-01T22:30:58.595Z,25.87
2019-04-01T22:33:28.236Z,24.97
2019-04-01T22:35:57.512Z,27.90
2019-04-01T22:38:26.646Z,29.00
2019-04-01T22:40:55.859Z,25.50
2019-04-01T22:43:25.417Z,24.43
2019-04-01T22:45:54.933Z,23.87
2019-04-01T22:48:24.281Z,24.63
2019-04-01T22:50:53.469Z,23.67
2019-04-01T22:53:22.594Z,24.17
2019-04-01T22:55:51.843Z,29.13
2019-04-01T22:58:22.022Z,23.90
2019-04-01T23:00:51.464Z,31.03
2019-04-01T23:03:20.663Z,25.43
2019-04-01T23:05:50.351Z,23.67
2019-04-01T23:08:19.779Z,27.00
2019-04-01T23:10:48.961Z,22.70
2019-04-01T23:13:18.079Z,23.80
2019-04-01T23:15:47.380Z,22.70
2019-04-01T23:18:16.583Z,26.77
2019-04-01T23:20:45.759Z,21.10
2019-04-01T23:23:15.039Z,21.37
2019-04-01T23:25:44.191Z,26.13
2019-04-01T23:28:13.326Z,22.07
2019-04-01T23:30:42.777Z,25.43
2019-04-01T23:33:12.114Z,25.50
2019-04-01T23:35:42.276Z,27.80
2019-04-01T23:38:12.400Z,27.97
2019-04-01T23:40:41.541Z,28.40
2019-04-01T23:43:10.719Z,27.67
2019-04-01T23:45:39.977Z,24.90
2019-04-01T23:48:09.430Z,22.40
2019-04-01T23:50:38.628Z,29.97
2019-04-01T23:53:07.832Z,24.93
2019-04-01T23:55:37.111Z,25.37
2019-04-01T23:58:06.610Z,23.30
